Time;durP1;ratioP1;P1;durP2;ratioP2;P2;SDS_P1;SDS_P2;PMS_P1;PMS_P2;Temp;Humidity;BMP_temperature;BMP_pressure;BME280_temperature;BME280_humidity;BME280_pressure;Samples;Min_cycle;Max_cycle;Signal;HPM_P1;HPM_P2
2022/07/13 00:01:53;;;;;;;0.25;0.20;;;;;;;25.99;40.04;99597.47;5132934;27;20050;-63
2022/07/13 00:04:19;;;;;;;0.40;0.40;;;;;;;25.91;40.69;99581.91;5140829;27;20535;-58
2022/07/13 00:06:44;;;;;;;0.30;0.30;;;;;;;25.98;41.15;99595.88;5146880;27;20039;-58
2022/07/13 00:09:10;;;;;;;0.22;0.22;;;;;;;26.01;41.11;99580.28;5134541;27;20031;-58
2022/07/13 00:11:35;;;;;;;0.35;0.30;;;;;;;26.17;41.04;99594.63;5143626;27;20038;-57
2022/07/13 00:14:00;;;;;;;0.57;0.40;;;;;;;26.23;40.34;99590.19;5149353;27;20042;-63
2022/07/13 00:16:26;;;;;;;0.95;0.30;;;;;;;26.20;40.62;99599.41;5149577;27;20039;-63
2022/07/13 00:18:51;;;;;;;0.50;0.40;;;;;;;26.10;40.36;99603.06;5145497;27;20532;-63
2022/07/13 00:21:17;;;;;;;0.40;0.40;;;;;;;26.02;39.66;99607.09;5138184;27;20092;-64
2022/07/13 00:23:42;;;;;;;0.47;0.30;;;;;;;25.96;41.31;99611.53;5137513;27;20039;-63
2022/07/13 00:26:09;;;;;;;0.60;0.40;;;;;;;25.94;40.93;99608.34;5138246;27;20084;-58
2022/07/13 00:28:34;;;;;;;0.52;0.40;;;;;;;26.03;41.16;99609.50;5143049;27;20083;-58
2022/07/13 00:30:59;;;;;;;0.43;0.40;;;;;;;26.14;40.78;99615.03;5141325;27;20039;-64
2022/07/13 00:33:25;;;;;;;0.47;0.38;;;;;;;26.26;40.73;99613.81;5146543;27;20183;-58
2022/07/13 00:35:50;;;;;;;0.52;0.38;;;;;;;26.35;40.43;99623.38;5141388;27;20066;-63
2022/07/13 00:38:16;;;;;;;0.28;0.25;;;;;;;26.30;39.43;99609.00;5133335;27;20130;-64
2022/07/13 00:40:41;;;;;;;0.43;0.40;;;;;;;26.21;39.80;99609.41;5140317;27;20043;-63
2022/07/13 00:43:06;;;;;;;0.28;0.28;;;;;;;26.05;40.89;99611.88;5145692;27;20447;-64
2022/07/13 00:45:32;;;;;;;2.67;0.30;;;;;;;26.02;41.23;99610.69;5140908;27;20043;-63
2022/07/13 00:47:58;;;;;;;0.32;0.32;;;;;;;26.07;41.06;99609.47;5150127;27;20435;-58
2022/07/13 00:50:24;;;;;;;0.40;0.20;;;;;;;26.22;41.08;99613.84;5129730;27;20078;-63
2022/07/13 00:52:49;;;;;;;1.08;0.40;;;;;;;26.32;40.12;99617.78;5138571;27;20432;-63
2022/07/13 00:55:16;;;;;;;0.45;0.38;;;;;;;26.27;40.28;99616.19;5137843;27;20053;-59
2022/07/13 00:57:42;;;;;;;0.40;0.40;;;;;;;26.19;39.91;99617.44;5144690;27;20365;-64
2022/07/13 01:00:11;;;;;;;0.40;0.40;;;;;;;26.08;39.41;99611.09;5143844;27;20061;-63
2022/07/13 01:02:42;;;;;;;0.40;0.35;;;;;;;26.06;39.07;99624.69;5139014;27;20043;-58
2022/07/13 01:05:11;;;;;;;0.60;0.30;;;;;;;25.98;39.84;99620.31;5134675;27;20137;-58
2022/07/13 01:07:37;;;;;;;0.40;0.40;;;;;;;25.92;40.60;99624.75;5129045;27;20138;-63
2022/07/13 01:10:05;;;;;;;0.43;0.32;;;;;;;26.01;40.80;99620.31;5134029;27;20043;-64
2022/07/13 01:12:32;;;;;;;0.40;0.40;;;;;;;26.12;40.51;99625.88;5147908;27;20042;-58
2022/07/13 01:14:58;;;;;;;0.38;0.38;;;;;;;26.22;39.75;99625.06;5135058;27;20046;-58
2022/07/13 01:17:25;;;;;;;0.22;0.22;;;;;;;26.20;40.05;99623.84;5135732;27;20054;-64
2022/07/13 01:19:51;;;;;;;0.35;0.30;;;;;;;26.06;39.53;99619.88;5134595;27;20055;-64
2022/07/13 01:22:21;;;;;;;0.52;0.40;;;;;;;26.01;40.50;99619.53;5150575;27;20045;-58
2022/07/13 01:24:48;;;;;;;0.32;0.32;;;;;;;25.99;41.06;99627.53;5138758;27;20047;-59
2022/07/13 01:27:14;;;;;;;0.30;0.30;;;;;;;26.05;40.66;99628.69;5146692;27;20061;-64
2022/07/13 01:29:40;;;;;;;0.30;0.30;;;;;;;26.17;40.60;99622.66;5135795;27;20035;-58
2022/07/13 01:32:07;;;;;;;0.40;0.38;;;;;;;26.22;40.18;99619.44;5135210;27;20613;-58
2022/07/13 01:34:33;;;;;;;0.45;0.30;;;;;;;26.07;39.94;99612.28;5143175;27;20455;-58
2022/07/13 01:37:00;;;;;;;0.65;0.40;;;;;;;25.98;39.25;99612.72;5133633;27;20046;-64
2022/07/13 01:39:26;;;;;;;0.95;0.50;;;;;;;25.94;40.82;99613.94;5129290;27;20129;-58
2022/07/13 01:41:52;;;;;;;0.30;0.30;;;;;;;25.95;41.16;99615.53;5142047;27;20050;-64
2022/07/13 01:44:17;;;;;;;0.50;0.35;;;;;;;26.02;41.09;99616.31;5145584;27;20042;-64
2022/07/13 01:46:42;;;;;;;0.38;0.30;;;;;;;26.16;40.75;99614.66;5139905;27;20495;-64
2022/07/13 01:49:09;;;;;;;0.40;0.40;;;;;;;26.22;40.40;99613.84;5136229;27;20051;-59
2022/07/13 01:51:35;;;;;;;0.30;0.30;;;;;;;26.26;39.41;99611.00;5136545;27;20487;-58
2022/07/13 01:54:01;;;;;;;0.32;0.30;;;;;;;26.14;40.64;99617.06;5140340;27;20062;-58
2022/07/13 01:56:27;;;;;;;0.32;0.30;;;;;;;26.07;40.87;99612.28;5134579;27;20047;-59
2022/07/13 01:58:53;;;;;;;0.40;0.30;;;;;;;26.11;41.03;99609.47;5146882;27;20031;-59
2022/07/13 02:01:18;;;;;;;0.50;0.45;;;;;;;26.20;40.79;99605.00;5138912;27;20046;-58
2022/07/13 02:03:44;;;;;;;0.35;0.30;;;;;;;26.25;40.31;99607.41;5145311;27;20039;-58
2022/07/13 02:06:10;;;;;;;0.40;0.40;;;;;;;26.23;39.72;99603.41;5145147;27;20054;-59
2022/07/13 02:08:35;;;;;;;0.50;0.50;;;;;;;26.18;39.30;99607.44;5149781;27;20035;-64
2022/07/13 02:11:01;;;;;;;0.60;0.40;;;;;;;26.06;40.28;99610.69;5144138;27;20046;-64
2022/07/13 02:13:26;;;;;;;0.57;0.40;;;;;;;26.02;40.83;99609.91;5129746;28;20044;-62
2022/07/13 02:15:52;;;;;;;0.35;0.35;;;;;;;26.05;41.07;99612.69;5118991;28;20050;-58
2022/07/13 02:18:17;;;;;;;0.38;0.30;;;;;;;26.12;40.92;99616.66;5109697;28;20065;-58
2022/07/13 02:20:43;;;;;;;0.35;0.30;;;;;;;26.23;40.43;99615.44;5115925;28;20048;-58
2022/07/13 02:23:08;;;;;;;0.40;0.38;;;;;;;26.35;40.72;99626.16;5127578;27;20448;-59
2022/07/13 02:25:34;;;;;;;0.50;0.40;;;;;;;26.46;40.18;99628.97;5123488;27;20502;-59
2022/07/13 02:28:00;;;;;;;0.40;0.40;;;;;;;26.38;39.89;99621.78;5111278;28;20499;-58
2022/07/13 02:30:25;;;;;;;0.30;0.30;;;;;;;26.27;40.30;99633.03;5127817;27;20096;-58
2022/07/13 02:32:51;;;;;;;0.35;0.35;;;;;;;26.21;39.85;99623.44;5115850;28;20125;-63
2022/07/13 02:35:17;;;;;;;0.47;0.40;;;;;;;26.14;39.20;99622.66;5114108;28;20052;-58
2022/07/13 02:37:42;;;;;;;0.60;0.40;;;;;;;26.01;39.66;99625.13;5128301;28;20039;-64
2022/07/13 02:40:10;;;;;;;0.30;0.30;;;;;;;26.02;40.55;99626.72;5122551;27;20039;-63
2022/07/13 02:42:35;;;;;;;0.40;0.40;;;;;;;26.10;40.72;99630.31;5113875;28;20052;-63
2022/07/13 02:45:01;;;;;;;0.40;0.38;;;;;;;26.20;40.58;99635.06;5131951;28;20054;-63
2022/07/13 02:47:26;;;;;;;0.40;0.40;;;;;;;26.27;40.36;99633.03;5124894;28;20380;-64
2022/07/13 02:49:52;;;;;;;0.30;0.30;;;;;;;26.37;40.39;99627.78;5120980;28;20032;-63
2022/07/13 02:52:17;;;;;;;0.47;0.40;;;;;;;26.40;40.22;99632.59;5131562;28;20138;-63
2022/07/13 02:54:43;;;;;;;0.35;0.35;;;;;;;26.31;39.29;99630.22;5111647;27;20503;-64
2022/07/13 02:57:08;;;;;;;0.63;0.50;;;;;;;26.14;40.28;99636.69;5118132;28;20505;-64
2022/07/13 02:59:36;;;;;;;0.85;0.57;;;;;;;26.09;39.42;99637.91;5122885;27;20070;-64
2022/07/13 03:02:02;;;;;;;0.60;0.40;;;;;;;26.01;40.28;99631.53;5119125;27;20039;-64
2022/07/13 03:04:28;;;;;;;0.43;0.40;;;;;;;25.97;40.48;99635.53;5118905;27;20039;-58
2022/07/13 03:06:54;;;;;;;0.32;0.30;;;;;;;26.01;40.44;99637.13;5125698;27;20027;-58
2022/07/13 03:09:19;;;;;;;1.17;0.40;;;;;;;26.12;40.47;99641.91;5115869;28;20156;-58
2022/07/13 03:11:44;;;;;;;0.40;0.32;;;;;;;26.21;39.91;99639.47;5123939;28;20051;-58
2022/07/13 03:14:10;;;;;;;0.70;0.40;;;;;;;26.14;40.64;99640.28;5118717;28;20044;-63
2022/07/13 03:16:35;;;;;;;0.75;0.40;;;;;;;26.14;40.13;99643.09;5121967;28;20304;-58
2022/07/13 03:19:01;;;;;;;0.45;0.38;;;;;;;26.01;39.60;99641.94;5127656;28;20087;-63
2022/07/13 03:21:30;;;;;;;0.60;0.40;;;;;;;25.98;40.85;99639.94;5122755;27;20027;-64
2022/07/13 03:23:56;;;;;;;0.40;0.40;;;;;;;26.01;40.43;99639.16;5123876;27;20039;-63
2022/07/13 03:26:21;;;;;;;1.85;0.40;;;;;;;26.10;40.64;99652.72;5121742;27;20046;-63
2022/07/13 03:28:47;;;;;;;0.30;0.30;;;;;;;26.22;40.02;99647.47;5112251;28;20392;-58
2022/07/13 03:31:13;;;;;;;0.43;0.43;;;;;;;26.24;38.93;99645.06;5110837;28;20036;-58
2022/07/13 03:33:39;;;;;;;0.40;0.40;;;;;;;26.10;39.67;99644.31;5111103;28;20047;-58
2022/07/13 03:36:05;;;;;;;0.55;0.40;;;;;;;25.97;40.69;99646.75;5114302;28;20560;-63
2022/07/13 03:38:31;;;;;;;0.55;0.50;;;;;;;25.97;40.56;99646.75;5114817;27;20406;-58
2022/07/13 03:40:57;;;;;;;1.00;0.40;;;;;;;26.04;40.53;99643.94;5125857;27;20122;-58
2022/07/13 03:43:22;;;;;;;0.30;0.30;;;;;;;26.19;39.95;99647.47;5128901;28;20119;-64
2022/07/13 03:45:48;;;;;;;1.35;0.47;;;;;;;26.20;39.40;99641.47;5124878;27;20043;-63
2022/07/13 03:48:16;;;;;;;0.35;0.35;;;;;;;26.13;40.46;99647.09;5116414;27;20040;-58
2022/07/13 03:50:42;;;;;;;0.57;0.47;;;;;;;26.12;40.29;99648.31;5123707;28;20043;-64
2022/07/13 03:53:07;;;;;;;0.77;0.50;;;;;;;26.00;39.27;99641.16;5111230;28;20503;-64
2022/07/13 03:55:33;;;;;;;0.88;0.50;;;;;;;26.01;40.41;99644.75;5116955;28;20082;-64
2022/07/13 03:57:59;;;;;;;0.40;0.40;;;;;;;26.00;40.56;99648.72;5114527;28;20415;-64
2022/07/13 04:00:24;;;;;;;0.35;0.35;;;;;;;26.09;40.16;99657.53;5114785;28;20108;-58
2022/07/13 04:02:50;;;;;;;0.73;0.50;;;;;;;26.20;40.02;99652.69;5119431;28;20791;-58
2022/07/13 04:05:15;;;;;;;0.47;0.43;;;;;;;26.25;39.57;99652.28;5120839;28;20051;-58
2022/07/13 04:07:40;;;;;;;0.60;0.47;;;;;;;26.27;38.95;99651.84;5129532;28;20550;-58
2022/07/13 04:10:06;;;;;;;0.20;0.20;;;;;;;26.14;39.60;99659.09;5129083;28;20156;-58
2022/07/13 04:12:32;;;;;;;0.38;0.35;;;;;;;26.04;40.13;99661.53;5128144;27;20551;-58
2022/07/13 04:14:58;;;;;;;0.57;0.43;;;;;;;26.06;39.78;99658.34;5125086;27;20047;-58
2022/07/13 04:17:24;;;;;;;0.60;0.50;;;;;;;26.12;39.83;99665.13;5116643;27;20139;-63
2022/07/13 04:19:49;;;;;;;0.38;0.38;;;;;;;26.22;39.64;99663.47;5121837;28;20036;-63
2022/07/13 04:22:15;;;;;;;0.77;0.50;;;;;;;26.30;39.50;99665.88;5125294;28;20130;-63
2022/07/13 04:24:40;;;;;;;0.57;0.40;;;;;;;26.36;39.17;99663.44;5124871;28;20126;-64
2022/07/13 04:27:06;;;;;;;0.47;0.40;;;;;;;26.38;39.12;99655.44;5118046;28;20517;-64
2022/07/13 04:29:31;;;;;;;0.30;0.30;;;;;;;26.29;39.73;99664.28;5117475;28;20122;-58
2022/07/13 04:31:56;;;;;;;0.50;0.40;;;;;;;26.20;39.98;99665.91;5123519;28;20035;-58
2022/07/13 04:34:22;;;;;;;0.57;0.30;;;;;;;26.21;39.58;99668.28;5123299;28;20501;-64
2022/07/13 04:36:47;;;;;;;0.40;0.40;;;;;;;26.27;39.69;99669.47;5126578;28;20118;-58
2022/07/13 04:39:13;;;;;;;0.35;0.32;;;;;;;26.25;39.45;99674.69;5112148;28;20237;-63
2022/07/13 04:41:39;;;;;;;0.35;0.30;;;;;;;26.16;39.43;99670.75;5119876;28;20415;-58
2022/07/13 04:44:05;;;;;;;1.08;0.45;;;;;;;26.03;39.34;99668.34;5122373;27;20464;-58
2022/07/13 04:46:31;;;;;;;0.50;0.40;;;;;;;25.97;40.13;99680.38;5121015;27;20471;-58
2022/07/13 04:48:58;;;;;;;0.75;0.40;;;;;;;26.01;39.90;99681.19;5124181;27;20043;-63
2022/07/13 04:51:23;;;;;;;0.40;0.30;;;;;;;26.13;40.04;99682.75;5119974;27;20047;-63
2022/07/13 04:53:49;;;;;;;0.40;0.40;;;;;;;26.19;39.42;99681.94;5116680;28;20395;-63
2022/07/13 04:56:14;;;;;;;0.50;0.40;;;;;;;26.20;39.52;99686.31;5124924;28;20039;-58
2022/07/13 04:58:40;;;;;;;0.63;0.40;;;;;;;26.15;39.17;99692.38;5114127;27;20101;-63
2022/07/13 05:01:07;;;;;;;0.82;0.45;;;;;;;26.08;39.22;99683.97;5120468;28;20035;-57
2022/07/13 05:03:33;;;;;;;0.93;0.50;;;;;;;25.98;40.21;99687.59;5115179;27;20040;-63
2022/07/13 05:06:00;;;;;;;0.57;0.50;;;;;;;26.02;40.07;99685.59;5127116;27;20106;-64
2022/07/13 05:08:25;;;;;;;0.70;0.50;;;;;;;26.10;40.49;99683.56;5118292;28;20126;-58
2022/07/13 05:10:51;;;;;;;0.40;0.40;;;;;;;26.25;39.78;99685.13;5121711;28;20126;-58
2022/07/13 05:13:17;;;;;;;3.60;0.55;;;;;;;26.14;40.73;99687.13;5127927;27;20150;-63
2022/07/13 05:15:42;;;;;;;2.65;0.40;;;;;;;26.03;40.55;99687.19;5128965;27;20047;-58
2022/07/13 05:18:08;;;;;;;0.60;0.50;;;;;;;26.06;40.50;99694.78;5120736;27;20520;-64
2022/07/13 05:20:33;;;;;;;1.33;0.60;;;;;;;26.19;39.62;99695.94;5115673;28;20031;-63
2022/07/13 05:22:58;;;;;;;1.33;0.50;;;;;;;26.26;39.68;99704.34;5127880;28;20469;-58
2022/07/13 05:25:24;;;;;;;0.73;0.40;;;;;;;26.19;39.64;99706.38;5124525;28;20093;-63
2022/07/13 05:27:49;;;;;;;0.88;0.40;;;;;;;26.07;39.60;99704.78;5116644;28;20493;-58
2022/07/13 05:30:15;;;;;;;0.80;0.60;;;;;;;26.02;39.59;99700.41;5116565;27;20043;-58
2022/07/13 05:32:40;;;;;;;33.17;1.27;;;;;;;26.02;39.04;99705.22;5113773;28;20036;-66
2022/07/13 05:35:06;;;;;;;26.35;1.50;;;;;;;25.99;40.90;99703.19;5114259;28;20039;-58
2022/07/13 05:37:31;;;;;;;12.73;1.15;;;;;;;25.99;41.22;99700.41;5113889;27;20039;-58
2022/07/13 05:39:57;;;;;;;8.23;1.27;;;;;;;26.05;40.97;99698.78;5124310;28;20403;-67
2022/07/13 05:42:22;;;;;;;7.63;1.17;;;;;;;26.17;40.67;99701.16;5111236;28;20121;-67
2022/07/13 05:44:48;;;;;;;11.57;1.08;;;;;;;26.21;40.38;99699.13;5110922;28;20039;-58
2022/07/13 05:47:13;;;;;;;12.25;1.17;;;;;;;26.22;38.88;99709.19;5116428;28;20136;-58
2022/07/13 05:49:39;;;;;;;3.47;0.77;;;;;;;26.06;40.18;99705.97;5124153;27;20059;-59
2022/07/13 05:52:04;;;;;;;3.55;0.80;;;;;;;26.02;41.27;99703.22;5123730;28;20524;-58
2022/07/13 05:54:30;;;;;;;6.40;0.88;;;;;;;26.05;41.11;99710.00;5109884;28;20042;-67
2022/07/13 05:56:56;;;;;;;6.55;0.70;;;;;;;26.12;40.59;99712.78;5120317;28;20043;-58
2022/07/13 05:59:22;;;;;;;3.97;0.75;;;;;;;26.25;40.13;99713.97;5128232;28;20049;-67
2022/07/13 06:01:47;;;;;;;2.53;0.60;;;;;;;26.26;39.73;99714.75;5114834;27;20048;-67
2022/07/13 06:04:12;;;;;;;4.72;0.70;;;;;;;26.32;39.92;99708.31;5115269;28;20380;-67
2022/07/13 06:06:38;;;;;;;1.80;0.50;;;;;;;26.47;39.54;99711.13;5123710;28;20043;-58
2022/07/13 06:09:03;;;;;;;2.83;0.70;;;;;;;26.54;39.13;99709.09;5115792;28;20035;-59
2022/07/13 06:11:29;;;;;;;3.97;1.05;;;;;;;26.62;39.14;99701.44;5126496;27;20031;-58
2022/07/13 06:13:54;;;;;;;1.20;0.45;;;;;;;26.69;38.71;99701.41;5125023;28;20477;-59
2022/07/13 06:16:20;;;;;;;1.33;0.50;;;;;;;26.76;38.63;99704.16;5116109;28;20529;-67
2022/07/13 06:18:45;;;;;;;3.28;0.70;;;;;;;26.79;38.52;99694.13;5125267;28;20066;-58
2022/07/13 06:21:10;;;;;;;1.38;0.60;;;;;;;26.88;38.34;99700.09;5115652;28;20529;-58
2022/07/13 06:23:36;;;;;;;1.10;0.50;;;;;;;26.90;38.52;99708.91;5112907;27;20031;-58
2022/07/13 06:26:01;;;;;;;0.77;0.50;;;;;;;26.95;38.28;99704.88;5120817;28;20043;-67
2022/07/13 06:28:27;;;;;;;1.33;0.40;;;;;;;26.99;38.25;99705.66;5108271;28;20039;-67
2022/07/13 06:30:52;;;;;;;1.30;0.52;;;;;;;27.06;38.00;99716.88;5113231;28;20044;-67
2022/07/13 06:33:17;;;;;;;2.08;0.57;;;;;;;27.06;37.78;99705.63;5122358;27;20044;-58
2022/07/13 06:35:43;;;;;;;1.15;0.32;;;;;;;27.13;37.58;99719.63;5122634;28;20043;-67
2022/07/13 06:38:08;;;;;;;0.82;0.47;;;;;;;27.19;37.75;99709.56;5126113;28;20571;-67
2022/07/13 06:40:34;;;;;;;1.88;0.52;;;;;;;27.20;37.49;99711.16;5120142;28;20083;-67
2022/07/13 06:43:00;;;;;;;0.30;0.30;;;;;;;27.24;37.43;99709.13;5113382;28;20116;-67
2022/07/13 06:45:25;;;;;;;0.52;0.45;;;;;;;27.24;37.39;99713.97;5124449;27;20499;-66
2022/07/13 06:47:51;;;;;;;0.70;0.47;;;;;;;27.25;37.51;99713.53;5114074;28;20032;-58
2022/07/13 06:50:17;;;;;;;0.82;0.47;;;;;;;27.27;37.43;99705.50;5113015;27;20509;-67
2022/07/13 06:52:44;;;;;;;0.90;0.40;;;;;;;27.30;37.21;99715.91;5117199;28;20040;-67
2022/07/13 06:55:10;;;;;;;0.40;0.30;;;;;;;27.29;37.26;99713.50;5118630;28;20055;-67
2022/07/13 06:57:36;;;;;;;0.75;0.45;;;;;;;27.32;37.30;99716.28;5115189;28;20046;-58
2022/07/13 07:00:04;;;;;;;5.82;0.43;;;;;;;27.33;37.67;99709.47;5112197;27;20035;-59
2022/07/13 07:02:30;;;;;;;1.75;0.63;;;;;;;27.36;37.97;99719.88;5112162;28;20093;-58
2022/07/13 07:04:55;;;;;;;1.95;0.40;;;;;;;27.41;38.03;99716.63;5114267;28;20559;-64
2022/07/13 07:07:22;;;;;;;1.40;0.60;;;;;;;27.43;37.63;99717.03;5115874;27;20054;-59
2022/07/13 07:09:47;;;;;;;1.55;0.60;;;;;;;27.48;37.20;99717.78;5109048;28;20036;-64
2022/07/13 07:12:13;;;;;;;7.40;0.80;;;;;;;27.51;36.98;99717.78;5119969;28;20038;-63
2022/07/13 07:14:38;;;;;;;1.48;0.68;;;;;;;27.47;36.99;99714.19;5124729;28;20063;-62
2022/07/13 07:17:04;;;;;;;4.00;0.80;;;;;;;27.51;36.81;99719.78;5122132;28;20410;-63
2022/07/13 07:19:30;;;;;;;5.68;0.88;;;;;;;27.54;36.66;99716.94;5103929;28;20036;-63
2022/07/13 07:21:55;;;;;;;5.50;0.90;;;;;;;27.53;36.29;99709.72;5117439;27;20059;-63
2022/07/13 07:24:22;;;;;;;6.40;1.08;;;;;;;27.28;36.67;99715.50;5115243;27;20046;-65
2022/07/13 07:26:48;;;;;;;7.90;1.27;;;;;;;27.18;36.33;99710.78;5115546;28;20046;-64
2022/07/13 07:29:14;;;;;;;5.25;1.10;;;;;;;27.11;36.07;99710.81;5125316;27;20043;-62
2022/07/13 07:31:39;;;;;;;5.22;1.10;;;;;;;27.12;36.47;99706.81;5116843;27;20031;-61
2022/07/13 07:34:05;;;;;;;4.32;1.10;;;;;;;27.13;35.84;99697.97;5120752;28;20474;-62
2022/07/13 07:36:30;;;;;;;3.10;0.95;;;;;;;27.15;36.50;99701.19;5121857;28;20047;-59
2022/07/13 07:38:55;;;;;;;8.05;1.30;;;;;;;27.20;36.59;99704.75;5119401;28;20035;-64
2022/07/13 07:41:21;;;;;;;4.10;1.00;;;;;;;27.23;36.34;99703.94;5129938;28;20081;-65
2022/07/13 07:43:48;;;;;;;8.77;1.20;;;;;;;27.23;36.30;99701.13;5123390;27;20055;-62
2022/07/13 07:46:14;;;;;;;4.53;1.10;;;;;;;27.23;36.07;99692.69;5117222;28;20112;-61
2022/07/13 07:48:39;;;;;;;5.28;1.10;;;;;;;27.08;37.02;99686.38;5119805;28;20464;-61
2022/07/13 07:51:05;;;;;;;6.75;1.60;;;;;;;27.12;36.65;99687.16;5121125;28;20043;-60
2022/07/13 07:53:31;;;;;;;5.22;1.30;;;;;;;27.11;36.68;99685.56;5122900;27;20142;-62
2022/07/13 07:55:56;;;;;;;6.00;1.40;;;;;;;27.13;36.72;99680.31;5122795;27;20043;-58
2022/07/13 07:58:22;;;;;;;14.25;1.20;;;;;;;27.14;36.74;99676.28;5122115;27;20051;-59
2022/07/13 08:00:47;;;;;;;13.70;1.52;;;;;;;27.21;36.16;99672.63;5110132;28;20050;-58
2022/07/13 08:03:13;;;;;;;5.45;1.35;;;;;;;27.18;35.57;99676.28;5114882;28;20079;-58
2022/07/13 08:05:38;;;;;;;9.07;1.45;;;;;;;27.12;36.05;99667.50;5113754;28;20126;-57
2022/07/13 08:08:04;;;;;;;5.43;1.55;;;;;;;27.19;36.34;99675.88;5122395;28;20043;-62
2022/07/13 08:10:30;;;;;;;5.57;1.70;;;;;;;27.17;35.80;99669.88;5122103;27;20051;-57
2022/07/13 08:12:57;;;;;;;7.80;2.55;;;;;;;27.10;36.28;99667.91;5123882;28;20040;-57
2022/07/13 08:15:23;;;;;;;13.43;2.75;;;;;;;27.19;36.33;99669.44;5124654;27;20526;-64
2022/07/13 08:17:49;;;;;;;11.80;1.80;;;;;;;27.28;35.95;99670.56;5126468;28;20530;-59
2022/07/13 08:20:14;;;;;;;9.65;2.10;;;;;;;27.21;35.45;99667.03;5123253;27;20043;-58
2022/07/13 08:22:40;;;;;;;9.05;2.20;;;;;;;27.05;36.31;99664.72;5123166;28;20059;-59
2022/07/13 08:25:05;;;;;;;8.98;1.70;;;;;;;27.07;35.58;99662.31;5123007;28;20046;-65
2022/07/13 08:27:32;;;;;;;13.38;2.60;;;;;;;27.19;35.77;99666.63;5120103;27;20430;-58
2022/07/13 08:29:58;;;;;;;12.18;2.10;;;;;;;27.12;36.14;99664.69;5109286;28;20054;-59
2022/07/13 08:32:24;;;;;;;16.65;2.40;;;;;;;27.05;36.43;99656.31;5107438;28;20044;-63
2022/07/13 08:40:21;;;;;;;11.50;5.50;;;;;;;27.19;35.27;99661.03;5105278;28;20821;-59
2022/07/13 08:42:47;;;;;;;10.15;3.55;;;;;;;27.16;35.28;99657.03;5103110;28;20093;-66
2022/07/13 08:45:12;;;;;;;9.32;2.65;;;;;;;27.12;36.35;99648.63;5109125;27;20043;-68
2022/07/13 08:47:39;;;;;;;7.55;2.10;;;;;;;27.21;35.62;99647.34;5106388;27;20039;-67
2022/07/13 08:50:07;;;;;;;10.85;3.20;;;;;;;27.09;36.86;99652.28;5111143;27;20043;-60
2022/07/13 08:52:34;;;;;;;7.00;2.10;;;;;;;27.19;36.42;99659.00;5111997;28;20043;-58
2022/07/13 08:55:03;;;;;;;9.48;2.30;;;;;;;27.18;35.94;99657.41;5104877;27;20047;-65
2022/07/13 08:57:29;;;;;;;7.68;2.10;;;;;;;27.16;36.61;99659.84;5102293;28;20051;-59
2022/07/13 08:59:54;;;;;;;7.10;2.20;;;;;;;27.21;36.10;99658.59;5106783;28;20066;-59
2022/07/13 09:02:20;;;;;;;6.93;1.70;;;;;;;27.15;36.51;99661.06;5102211;27;20043;-59
2022/07/13 09:04:46;;;;;;;4.63;1.90;;;;;;;27.16;36.03;99657.03;5104467;28;20055;-59
2022/07/13 09:07:12;;;;;;;5.60;1.73;;;;;;;27.13;35.53;99653.03;5105942;27;20044;-59
2022/07/13 09:09:38;;;;;;;5.93;1.80;;;;;;;27.15;36.33;99655.44;5107155;28;20961;-59
2022/07/13 09:12:24;;;;;;;22.23;14.57;;;;;;;27.20;35.22;99657.78;5104241;28;20039;-58
2022/07/13 09:14:54;;;;;;;9.38;3.60;;;;;;;27.20;36.11;99655.00;5107063;28;20055;-59
2022/07/13 09:17:30;;;;;;;6.68;3.15;;;;;;;27.23;35.67;99654.19;5103643;28;21348;-58
2022/07/13 09:19:57;;;;;;;8.07;2.58;;;;;;;27.24;35.40;99650.16;5108143;27;20038;-58
2022/07/13 09:22:23;;;;;;;8.55;2.40;;;;;;;27.25;35.99;99650.94;5108928;28;20043;-58
2022/07/13 09:24:53;;;;;;;5.70;1.95;;;;;;;27.30;35.10;99648.50;5106500;28;20051;-58
2022/07/13 09:27:21;;;;;;;8.65;1.90;;;;;;;27.19;36.33;99642.16;5108065;28;20047;-58
2022/07/13 09:29:49;;;;;;;6.63;1.58;;;;;;;27.23;35.76;99633.72;5105329;28;20049;-58
2022/07/13 09:32:15;;;;;;;6.68;1.70;;;;;;;27.33;35.79;99642.06;5103530;27;20127;-58
2022/07/13 09:34:54;;;;;;;5.40;1.58;;;;;;;27.28;35.35;99644.50;5111654;28;20121;-58
2022/07/13 09:37:27;;;;;;;4.07;1.35;;;;;;;27.13;35.68;99639.00;5104103;27;20039;-58
2022/07/13 09:39:58;;;;;;;3.95;1.60;;;;;;;27.08;35.44;99641.47;5110204;28;20046;-59
2022/07/13 09:42:28;;;;;;;6.97;1.55;;;;;;;27.01;35.65;99636.66;5105373;28;20066;-62
2022/07/13 09:47:41;;;;;;;5.45;1.30;;;;;;;27.12;35.41;99633.78;5110655;28;20070;-57
2022/07/13 09:50:07;;;;;;;8.40;1.30;;;;;;;27.13;35.46;99626.97;5118243;28;20046;-59
2022/07/13 09:52:32;;;;;;;3.78;1.20;;;;;;;27.18;35.40;99620.13;5125265;27;20491;-59
2022/07/13 09:54:58;;;;;;;3.22;1.20;;;;;;;27.21;35.32;99622.88;5118230;27;20394;-59
2022/07/13 09:57:25;;;;;;;3.38;1.60;;;;;;;27.21;35.50;99624.91;5105096;28;20039;-62
2022/07/13 09:59:52;;;;;;;4.15;1.17;;;;;;;27.17;35.35;99622.13;5112191;28;20111;-59
2022/07/13 10:02:19;;;;;;;4.72;1.23;;;;;;;27.21;35.61;99622.88;5118628;28;20386;-57
2022/07/13 10:04:47;;;;;;;2.72;1.13;;;;;;;27.22;35.07;99618.88;5123850;28;20031;-57
2022/07/13 10:07:13;;;;;;;2.50;0.90;;;;;;;27.17;34.71;99619.31;5119674;28;20051;-62
2022/07/13 10:09:39;;;;;;;5.18;1.40;;;;;;;27.09;34.71;99614.97;5123692;27;20039;-62
2022/07/13 10:12:06;;;;;;;2.28;1.35;;;;;;;27.13;34.73;99612.91;5112721;28;20040;-65
2022/07/13 10:14:32;;;;;;;3.38;1.23;;;;;;;27.08;35.35;99613.38;5115689;27;20082;-59
2022/07/13 10:17:07;;;;;;;3.60;1.85;;;;;;;27.17;35.35;99608.09;5121246;27;20044;-59
2022/07/13 10:19:40;;;;;;;4.45;1.50;;;;;;;27.17;35.26;99605.28;5115486;28;20047;-64
2022/07/13 10:22:09;;;;;;;4.03;1.20;;;;;;;27.27;34.63;99606.38;5112434;28;20085;-59
2022/07/13 10:24:36;;;;;;;3.20;1.20;;;;;;;27.33;34.15;99601.94;5119155;28;20058;-63
2022/07/13 10:27:27;;;;;;;2.30;0.90;;;;;;;27.33;34.39;99608.34;5117808;28;20051;-63
2022/07/13 10:29:55;;;;;;;2.38;1.27;;;;;;;27.22;34.26;99604.84;5117975;28;20047;-59
2022/07/13 10:32:22;;;;;;;5.30;1.05;;;;;;;27.20;33.95;99596.00;5116994;27;20135;-59
2022/07/13 10:34:58;;;;;;;4.00;1.08;;;;;;;27.15;34.13;99602.09;5120601;28;20043;-63
2022/07/13 10:37:25;;;;;;;5.18;1.20;;;;;;;27.16;34.49;99598.06;5116789;28;20503;-58
2022/07/13 10:40:14;;;;;;;3.00;1.02;;;;;;;27.13;34.70;99599.69;5117500;28;20051;-59
2022/07/13 10:42:54;;;;;;;2.67;1.00;;;;;;;27.19;34.60;99597.22;5115881;28;20155;-61
2022/07/13 10:45:38;;;;;;;7.25;1.13;;;;;;;27.21;34.50;99592.00;5121889;28;20122;-65
2022/07/13 10:48:13;;;;;;;2.35;1.02;;;;;;;27.23;34.15;99592.41;5118233;28;20091;-60
2022/07/13 10:50:46;;;;;;;1.50;0.98;;;;;;;27.22;34.16;99589.97;5116815;27;20451;-60
2022/07/13 10:53:17;;;;;;;6.30;4.20;;;;;;;27.28;34.27;99585.50;5117735;28;20417;-60
2022/07/13 10:55:49;;;;;;;5.47;3.55;;;;;;;27.21;33.76;99580.75;5114200;28;20510;-65
2022/07/13 10:58:40;;;;;;;4.55;2.40;;;;;;;27.22;34.80;99576.75;5122692;27;20406;-57
2022/07/13 11:01:33;;;;;;;12.70;6.30;;;;;;;27.27;34.83;99570.69;5125636;28;20805;-59
2022/07/13 11:03:59;;;;;;;5.45;3.20;;;;;;;27.35;34.06;99571.41;5120307;28;20149;-65
2022/07/13 11:06:25;;;;;;;7.25;2.33;;;;;;;27.37;34.10;99574.63;5119365;28;20035;-59
2022/07/13 11:09:23;;;;;;;3.80;1.60;;;;;;;27.38;34.37;99571.38;5125831;27;20047;-59
2022/07/13 11:11:53;;;;;;;8.48;1.40;;;;;;;27.46;33.80;99574.91;5086603;28;20774;-59
2022/07/13 11:14:38;;;;;;;3.38;1.30;;;;;;;27.48;34.17;99568.88;5119007;28;20088;-63
2022/07/13 11:17:17;;;;;;;5.93;1.40;;;;;;;27.46;34.08;99572.09;5121286;28;20047;-64
2022/07/13 11:19:52;;;;;;;4.38;1.40;;;;;;;27.41;34.08;99559.31;5121461;28;20031;-60
2022/07/13 11:22:20;;;;;;;2.92;1.10;;;;;;;27.41;34.02;99564.13;5120997;28;20055;-59
2022/07/13 11:25:14;;;;;;;4.45;1.65;;;;;;;27.48;34.16;99568.88;5123876;28;20100;-64
2022/07/13 11:28:03;;;;;;;11.43;5.95;;;;;;;27.61;33.85;99567.94;5122299;28;20065;-64
2022/07/13 11:30:31;;;;;;;4.40;2.53;;;;;;;27.64;33.83;99560.66;5120991;28;20051;-64
2022/07/13 11:32:57;;;;;;;4.32;1.98;;;;;;;27.60;33.72;99559.94;5123420;28;20035;-59
2022/07/13 11:35:23;;;;;;;6.05;1.50;;;;;;;27.56;34.01;99559.16;5127345;28;20051;-59
2022/07/13 11:37:48;;;;;;;8.25;1.30;;;;;;;27.56;34.18;99550.72;5127451;27;20040;-59
2022/07/13 11:40:27;;;;;;;8.40;1.33;;;;;;;27.61;34.52;99553.88;5124948;28;20451;-64